sensor_id;sensor_type;location;lat;lon;timestamp;P1;durP1;ratioP1;P2;durP2;ratioP2
65045;SDS011;54657;52.022;5.534;2023-06-22T00:00:56;3.53;;;2.50;;
65045;SDS011;54657;52.022;5.534;2023-06-22T00:03:23;3.47;;;3.00;;
65045;SDS011;54657;52.022;5.534;2023-06-22T00:05:49;4.25;;;2.92;;
65045;SDS011;54657;52.022;5.534;2023-06-22T00:08:16;4.35;;;2.72;;
65045;SDS011;54657;52.022;5.534;2023-06-22T00:10:42;3.35;;;2.47;;
65045;SDS011;54657;52.022;5.534;2023-06-22T00:13:08;3.13;;;2.83;;
65045;SDS011;54657;52.022;5.534;2023-06-22T00:15:34;3.45;;;2.80;;
65045;SDS011;54657;52.022;5.534;2023-06-22T00:18:00;4.95;;;2.63;;
65045;SDS011;54657;52.022;5.534;2023-06-22T00:20:27;3.85;;;3.20;;
65045;SDS011;54657;52.022;5.534;2023-06-22T00:22:56;3.78;;;2.92;;
65045;SDS011;54657;52.022;5.534;2023-06-22T00:25:23;3.97;;;3.20;;
65045;SDS011;54657;52.022;5.534;2023-06-22T00:27:48;3.47;;;3.08;;
65045;SDS011;54657;52.022;5.534;2023-06-22T00:30:15;3.42;;;3.13;;
65045;SDS011;54657;52.022;5.534;2023-06-22T00:32:42;3.83;;;3.03;;
65045;SDS011;54657;52.022;5.534;2023-06-22T00:35:08;3.65;;;2.88;;
65045;SDS011;54657;52.022;5.534;2023-06-22T00:37:35;3.35;;;3.03;;
65045;SDS011;54657;52.022;5.534;2023-06-22T00:40:01;3.38;;;2.88;;
65045;SDS011;54657;52.022;5.534;2023-06-22T00:42:28;3.33;;;2.70;;
65045;SDS011;54657;52.022;5.534;2023-06-22T00:44:53;5.82;;;3.05;;
65045;SDS011;54657;52.022;5.534;2023-06-22T00:47:19;4.22;;;2.78;;
65045;SDS011;54657;52.022;5.534;2023-06-22T00:49:45;5.25;;;2.92;;
65045;SDS011;54657;52.022;5.534;2023-06-22T00:52:13;3.40;;;3.10;;
65045;SDS011;54657;52.022;5.534;2023-06-22T00:54:46;3.97;;;3.60;;
65045;SDS011;54657;52.022;5.534;2023-06-22T00:57:14;5.55;;;4.30;;
65045;SDS011;54657;52.022;5.534;2023-06-22T00:59:43;3.92;;;3.63;;
65045;SDS011;54657;52.022;5.534;2023-06-22T01:02:09;4.32;;;3.92;;
65045;SDS011;54657;52.022;5.534;2023-06-22T01:04:36;4.75;;;4.10;;
65045;SDS011;54657;52.022;5.534;2023-06-22T01:07:04;4.65;;;4.13;;
65045;SDS011;54657;52.022;5.534;2023-06-22T01:12:30;6.30;;;5.20;;
65045;SDS011;54657;52.022;5.534;2023-06-22T01:15:10;5.47;;;4.97;;
65045;SDS011;54657;52.022;5.534;2023-06-22T01:17:40;5.97;;;5.03;;
65045;SDS011;54657;52.022;5.534;2023-06-22T01:20:08;5.63;;;5.13;;
65045;SDS011;54657;52.022;5.534;2023-06-22T01:22:41;6.57;;;5.65;;
65045;SDS011;54657;52.022;5.534;2023-06-22T01:28:19;4.95;;;4.38;;
65045;SDS011;54657;52.022;5.534;2023-06-22T01:30:55;5.20;;;4.63;;
65045;SDS011;54657;52.022;5.534;2023-06-22T01:33:31;5.75;;;5.18;;
65045;SDS011;54657;52.022;5.534;2023-06-22T01:35:59;5.78;;;5.18;;
65045;SDS011;54657;52.022;5.534;2023-06-22T01:38:26;7.13;;;4.70;;
65045;SDS011;54657;52.022;5.534;2023-06-22T01:40:54;7.28;;;4.75;;
65045;SDS011;54657;52.022;5.534;2023-06-22T01:43:25;5.05;;;4.38;;
65045;SDS011;54657;52.022;5.534;2023-06-22T01:45:52;6.50;;;4.25;;
65045;SDS011;54657;52.022;5.534;2023-06-22T01:48:21;4.35;;;3.92;;
65045;SDS011;54657;52.022;5.534;2023-06-22T01:50:47;4.78;;;4.38;;
65045;SDS011;54657;52.022;5.534;2023-06-22T01:53:13;7.65;;;4.60;;
65045;SDS011;54657;52.022;5.534;2023-06-22T01:55:39;5.90;;;4.72;;
65045;SDS011;54657;52.022;5.534;2023-06-22T01:58:05;5.65;;;4.65;;
65045;SDS011;54657;52.022;5.534;2023-06-22T02:00:31;5.45;;;4.53;;
65045;SDS011;54657;52.022;5.534;2023-06-22T02:03:01;7.97;;;5.25;;
65045;SDS011;54657;52.022;5.534;2023-06-22T02:05:43;5.60;;;4.90;;
65045;SDS011;54657;52.022;5.534;2023-06-22T02:08:21;6.28;;;5.68;;
65045;SDS011;54657;52.022;5.534;2023-06-22T02:10:50;6.32;;;5.65;;
65045;SDS011;54657;52.022;5.534;2023-06-22T02:13:17;6.60;;;5.70;;
65045;SDS011;54657;52.022;5.534;2023-06-22T02:15:43;5.93;;;5.35;;
65045;SDS011;54657;52.022;5.534;2023-06-22T02:18:10;6.75;;;6.05;;
65045;SDS011;54657;52.022;5.534;2023-06-22T02:20:36;6.30;;;5.70;;
65045;SDS011;54657;52.022;5.534;2023-06-22T02:23:02;6.88;;;5.78;;
65045;SDS011;54657;52.022;5.534;2023-06-22T02:25:28;6.38;;;5.65;;
65045;SDS011;54657;52.022;5.534;2023-06-22T02:27:53;5.82;;;5.22;;
65045;SDS011;54657;52.022;5.534;2023-06-22T02:30:19;6.75;;;5.35;;
65045;SDS011;54657;52.022;5.534;2023-06-22T02:32:45;6.13;;;5.63;;
65045;SDS011;54657;52.022;5.534;2023-06-22T02:35:10;5.43;;;4.93;;
65045;SDS011;54657;52.022;5.534;2023-06-22T02:37:36;6.50;;;5.90;;
65045;SDS011;54657;52.022;5.534;2023-06-22T02:40:09;6.95;;;6.25;;
65045;SDS011;54657;52.022;5.534;2023-06-22T02:42:36;6.25;;;5.72;;
65045;SDS011;54657;52.022;5.534;2023-06-22T02:45:02;7.25;;;6.55;;
65045;SDS011;54657;52.022;5.534;2023-06-22T02:47:28;6.60;;;5.90;;
65045;SDS011;54657;52.022;5.534;2023-06-22T02:49:54;6.68;;;5.85;;
65045;SDS011;54657;52.022;5.534;2023-06-22T02:52:20;6.10;;;5.47;;
65045;SDS011;54657;52.022;5.534;2023-06-22T02:54:45;5.78;;;5.18;;
65045;SDS011;54657;52.022;5.534;2023-06-22T02:57:11;6.68;;;5.97;;
65045;SDS011;54657;52.022;5.534;2023-06-22T02:59:39;6.45;;;5.30;;
65045;SDS011;54657;52.022;5.534;2023-06-22T03:02:06;6.45;;;5.85;;
65045;SDS011;54657;52.022;5.534;2023-06-22T03:04:32;7.53;;;5.80;;
65045;SDS011;54657;52.022;5.534;2023-06-22T03:06:59;6.32;;;5.72;;
65045;SDS011;54657;52.022;5.534;2023-06-22T03:09:26;6.10;;;5.50;;
65045;SDS011;54657;52.022;5.534;2023-06-22T03:11:52;5.90;;;5.20;;
65045;SDS011;54657;52.022;5.534;2023-06-22T03:14:19;6.05;;;5.45;;
65045;SDS011;54657;52.022;5.534;2023-06-22T03:16:44;6.47;;;5.82;;
65045;SDS011;54657;52.022;5.534;2023-06-22T03:19:10;6.30;;;5.70;;
65045;SDS011;54657;52.022;5.534;2023-06-22T03:21:36;7.25;;;5.97;;
65045;SDS011;54657;52.022;5.534;2023-06-22T03:24:03;7.15;;;5.35;;
65045;SDS011;54657;52.022;5.534;2023-06-22T03:26:30;5.60;;;5.10;;
65045;SDS011;54657;52.022;5.534;2023-06-22T03:28:55;5.85;;;5.28;;
65045;SDS011;54657;52.022;5.534;2023-06-22T03:31:21;6.68;;;5.82;;
65045;SDS011;54657;52.022;5.534;2023-06-22T03:33:47;7.70;;;5.63;;
65045;SDS011;54657;52.022;5.534;2023-06-22T03:36:19;6.65;;;6.05;;
65045;SDS011;54657;52.022;5.534;2023-06-22T03:38:48;9.00;;;6.18;;
65045;SDS011;54657;52.022;5.534;2023-06-22T03:41:14;6.97;;;6.28;;
65045;SDS011;54657;52.022;5.534;2023-06-22T03:43:40;6.85;;;6.10;;
65045;SDS011;54657;52.022;5.534;2023-06-22T03:46:06;6.70;;;6.03;;
65045;SDS011;54657;52.022;5.534;2023-06-22T03:48:31;6.63;;;6.03;;
65045;SDS011;54657;52.022;5.534;2023-06-22T03:50:58;6.13;;;5.13;;
65045;SDS011;54657;52.022;5.534;2023-06-22T03:53:24;5.97;;;5.20;;
65045;SDS011;54657;52.022;5.534;2023-06-22T03:55:51;6.03;;;5.53;;
65045;SDS011;54657;52.022;5.534;2023-06-22T03:58:18;7.28;;;5.53;;
65045;SDS011;54657;52.022;5.534;2023-06-22T04:00:47;5.90;;;5.40;;
65045;SDS011;54657;52.022;5.534;2023-06-22T04:03:14;6.13;;;5.53;;
65045;SDS011;54657;52.022;5.534;2023-06-22T04:05:41;6.03;;;5.43;;
65045;SDS011;54657;52.022;5.534;2023-06-22T04:08:07;5.68;;;5.07;;
65045;SDS011;54657;52.022;5.534;2023-06-22T04:10:33;5.68;;;5.18;;
65045;SDS011;54657;52.022;5.534;2023-06-22T04:12:59;6.78;;;5.68;;
65045;SDS011;54657;52.022;5.534;2023-06-22T04:15:25;7.05;;;5.68;;
65045;SDS011;54657;52.022;5.534;2023-06-22T04:17:50;7.55;;;6.00;;
65045;SDS011;54657;52.022;5.534;2023-06-22T04:20:16;7.22;;;6.53;;
65045;SDS011;54657;52.022;5.534;2023-06-22T04:22:42;7.90;;;6.80;;
65045;SDS011;54657;52.022;5.534;2023-06-22T04:25:07;7.85;;;6.80;;
65045;SDS011;54657;52.022;5.534;2023-06-22T04:27:33;7.32;;;6.65;;
65045;SDS011;54657;52.022;5.534;2023-06-22T04:30:05;7.05;;;6.43;;
65045;SDS011;54657;52.022;5.534;2023-06-22T04:32:32;7.82;;;7.07;;
65045;SDS011;54657;52.022;5.534;2023-06-22T04:35:00;7.05;;;6.45;;
65045;SDS011;54657;52.022;5.534;2023-06-22T04:37:27;7.70;;;6.40;;
65045;SDS011;54657;52.022;5.534;2023-06-22T04:39:52;6.95;;;6.32;;
65045;SDS011;54657;52.022;5.534;2023-06-22T04:42:18;8.88;;;5.78;;
65045;SDS011;54657;52.022;5.534;2023-06-22T04:44:43;6.75;;;6.10;;
65045;SDS011;54657;52.022;5.534;2023-06-22T04:47:09;6.60;;;5.88;;
65045;SDS011;54657;52.022;5.534;2023-06-22T04:49:35;7.25;;;5.65;;
65045;SDS011;54657;52.022;5.534;2023-06-22T04:52:03;7.15;;;6.45;;
65045;SDS011;54657;52.022;5.534;2023-06-22T04:54:31;13.93;;;6.60;;
65045;SDS011;54657;52.022;5.534;2023-06-22T04:57:01;7.95;;;6.20;;
65045;SDS011;54657;52.022;5.534;2023-06-22T04:59:34;6.70;;;5.95;;
65045;SDS011;54657;52.022;5.534;2023-06-22T05:02:01;6.60;;;6.00;;
65045;SDS011;54657;52.022;5.534;2023-06-22T05:04:28;7.35;;;6.63;;
65045;SDS011;54657;52.022;5.534;2023-06-22T05:06:58;8.73;;;7.00;;
65045;SDS011;54657;52.022;5.534;2023-06-22T05:09:25;9.77;;;7.63;;
65045;SDS011;54657;52.022;5.534;2023-06-22T05:11:51;6.82;;;6.13;;
65045;SDS011;54657;52.022;5.534;2023-06-22T05:14:16;8.15;;;7.28;;
65045;SDS011;54657;52.022;5.534;2023-06-22T05:16:43;8.75;;;7.78;;
65045;SDS011;54657;52.022;5.534;2023-06-22T05:19:10;10.90;;;9.82;;
65045;SDS011;54657;52.022;5.534;2023-06-22T05:21:36;9.48;;;8.10;;
65045;SDS011;54657;52.022;5.534;2023-06-22T05:24:01;16.75;;;13.55;;
65045;SDS011;54657;52.022;5.534;2023-06-22T05:26:31;15.43;;;13.77;;
65045;SDS011;54657;52.022;5.534;2023-06-22T05:28:59;19.92;;;15.40;;
65045;SDS011;54657;52.022;5.534;2023-06-22T05:31:26;19.15;;;14.52;;
65045;SDS011;54657;52.022;5.534;2023-06-22T05:33:52;16.45;;;14.85;;
65045;SDS011;54657;52.022;5.534;2023-06-22T05:36:19;20.58;;;16.98;;
65045;SDS011;54657;52.022;5.534;2023-06-22T05:38:46;20.23;;;17.38;;
65045;SDS011;54657;52.022;5.534;2023-06-22T05:41:12;20.75;;;16.30;;
65045;SDS011;54657;52.022;5.534;2023-06-22T05:43:37;20.27;;;18.13;;
65045;SDS011;54657;52.022;5.534;2023-06-22T05:46:03;23.33;;;18.13;;
65045;SDS011;54657;52.022;5.534;2023-06-22T05:48:29;20.42;;;18.30;;
65045;SDS011;54657;52.022;5.534;2023-06-22T05:50:55;20.58;;;18.38;;
65045;SDS011;54657;52.022;5.534;2023-06-22T05:53:21;20.23;;;18.08;;
65045;SDS011;54657;52.022;5.534;2023-06-22T05:55:47;21.13;;;18.15;;
65045;SDS011;54657;52.022;5.534;2023-06-22T05:58:12;22.35;;;18.20;;
65045;SDS011;54657;52.022;5.534;2023-06-22T06:00:38;20.73;;;18.35;;
65045;SDS011;54657;52.022;5.534;2023-06-22T06:03:05;20.35;;;18.02;;
65045;SDS011;54657;52.022;5.534;2023-06-22T06:05:32;22.95;;;18.90;;
65045;SDS011;54657;52.022;5.534;2023-06-22T06:08:01;21.45;;;17.95;;
65045;SDS011;54657;52.022;5.534;2023-06-22T06:10:29;20.13;;;17.95;;
65045;SDS011;54657;52.022;5.534;2023-06-22T06:12:56;20.45;;;18.35;;
65045;SDS011;54657;52.022;5.534;2023-06-22T06:15:22;20.70;;;18.65;;
65045;SDS011;54657;52.022;5.534;2023-06-22T06:17:51;23.25;;;19.50;;
65045;SDS011;54657;52.022;5.534;2023-06-22T06:20:18;20.90;;;18.67;;
65045;SDS011;54657;52.022;5.534;2023-06-22T06:22:48;19.48;;;17.52;;
65045;SDS011;54657;52.022;5.534;2023-06-22T06:25:14;20.48;;;18.38;;
65045;SDS011;54657;52.022;5.534;2023-06-22T06:27:45;19.20;;;17.15;;
65045;SDS011;54657;52.022;5.534;2023-06-22T06:30:11;21.50;;;17.52;;
65045;SDS011;54657;52.022;5.534;2023-06-22T06:32:38;20.02;;;17.45;;
65045;SDS011;54657;52.022;5.534;2023-06-22T06:35:07;19.50;;;17.67;;
65045;SDS011;54657;52.022;5.534;2023-06-22T06:37:36;19.58;;;17.52;;
65045;SDS011;54657;52.022;5.534;2023-06-22T06:40:03;21.58;;;17.38;;
65045;SDS011;54657;52.022;5.534;2023-06-22T06:42:36;19.15;;;17.10;;
65045;SDS011;54657;52.022;5.534;2023-06-22T06:45:12;18.45;;;16.60;;
65045;SDS011;54657;52.022;5.534;2023-06-22T06:47:44;19.17;;;17.17;;
65045;SDS011;54657;52.022;5.534;2023-06-22T06:50:10;19.10;;;17.20;;
65045;SDS011;54657;52.022;5.534;2023-06-22T06:52:36;19.45;;;16.17;;
65045;SDS011;54657;52.022;5.534;2023-06-22T06:55:02;18.80;;;16.88;;
65045;SDS011;54657;52.022;5.534;2023-06-22T06:57:33;18.35;;;16.45;;
65045;SDS011;54657;52.022;5.534;2023-06-22T06:59:59;18.35;;;16.65;;
65045;SDS011;54657;52.022;5.534;2023-06-22T07:02:25;18.98;;;16.90;;
65045;SDS011;54657;52.022;5.534;2023-06-22T07:10:08;17.35;;;15.20;;
65045;SDS011;54657;52.022;5.534;2023-06-22T07:12:57;17.33;;;15.57;;
65045;SDS011;54657;52.022;5.534;2023-06-22T07:15:34;16.08;;;14.48;;
65045;SDS011;54657;52.022;5.534;2023-06-22T07:18:00;15.68;;;14.15;;
65045;SDS011;54657;52.022;5.534;2023-06-22T07:20:26;18.17;;;13.85;;
65045;SDS011;54657;52.022;5.534;2023-06-22T07:22:51;16.13;;;13.02;;
65045;SDS011;54657;52.022;5.534;2023-06-22T07:25:35;12.85;;;11.60;;
65045;SDS011;54657;52.022;5.534;2023-06-22T07:28:01;13.40;;;11.95;;
65045;SDS011;54657;52.022;5.534;2023-06-22T07:30:31;12.40;;;11.23;;
65045;SDS011;54657;52.022;5.534;2023-06-22T07:33:00;11.38;;;9.95;;
65045;SDS011;54657;52.022;5.534;2023-06-22T07:35:36;12.23;;;9.70;;
65045;SDS011;54657;52.022;5.534;2023-06-22T07:38:02;12.05;;;9.50;;
65045;SDS011;54657;52.022;5.534;2023-06-22T07:40:28;10.07;;;9.05;;
65045;SDS011;54657;52.022;5.534;2023-06-22T07:42:54;11.68;;;8.50;;
65045;SDS011;54657;52.022;5.534;2023-06-22T07:45:22;9.88;;;8.38;;
65045;SDS011;54657;52.022;5.534;2023-06-22T07:47:47;9.40;;;7.95;;
65045;SDS011;54657;52.022;5.534;2023-06-22T07:50:18;9.85;;;8.65;;
65045;SDS011;54657;52.022;5.534;2023-06-22T07:52:47;9.82;;;8.82;;
65045;SDS011;54657;52.022;5.534;2023-06-22T07:55:13;8.82;;;7.55;;
65045;SDS011;54657;52.022;5.534;2023-06-22T07:57:44;10.57;;;7.47;;
65045;SDS011;54657;52.022;5.534;2023-06-22T08:00:11;7.40;;;6.68;;
65045;SDS011;54657;52.022;5.534;2023-06-22T08:02:41;9.93;;;7.28;;
65045;SDS011;54657;52.022;5.534;2023-06-22T08:05:08;7.93;;;7.10;;
65045;SDS011;54657;52.022;5.534;2023-06-22T08:07:34;7.55;;;6.80;;
65045;SDS011;54657;52.022;5.534;2023-06-22T08:10:02;8.48;;;7.25;;
65045;SDS011;54657;52.022;5.534;2023-06-22T08:12:31;9.93;;;6.70;;
65045;SDS011;54657;52.022;5.534;2023-06-22T08:14:57;8.15;;;6.97;;
65045;SDS011;54657;52.022;5.534;2023-06-22T08:17:23;7.82;;;7.03;;
65045;SDS011;54657;52.022;5.534;2023-06-22T08:19:49;8.60;;;6.50;;
65045;SDS011;54657;52.022;5.534;2023-06-22T08:22:16;6.75;;;6.15;;
65045;SDS011;54657;52.022;5.534;2023-06-22T08:24:41;8.43;;;7.25;;
65045;SDS011;54657;52.022;5.534;2023-06-22T08:27:07;9.27;;;7.05;;
65045;SDS011;54657;52.022;5.534;2023-06-22T08:29:46;6.72;;;5.93;;
65045;SDS011;54657;52.022;5.534;2023-06-22T08:32:12;7.72;;;7.03;;
65045;SDS011;54657;52.022;5.534;2023-06-22T08:34:38;9.73;;;7.20;;
65045;SDS011;54657;52.022;5.534;2023-06-22T08:37:07;7.82;;;6.88;;
65045;SDS011;54657;52.022;5.534;2023-06-22T08:39:35;8.30;;;7.50;;
65045;SDS011;54657;52.022;5.534;2023-06-22T08:42:01;9.02;;;8.05;;
65045;SDS011;54657;52.022;5.534;2023-06-22T08:44:26;9.68;;;8.77;;
65045;SDS011;54657;52.022;5.534;2023-06-22T08:47:01;10.00;;;9.10;;
65045;SDS011;54657;52.022;5.534;2023-06-22T08:49:28;9.60;;;8.25;;
65045;SDS011;54657;52.022;5.534;2023-06-22T08:51:54;8.23;;;7.13;;
65045;SDS011;54657;52.022;5.534;2023-06-22T08:54:21;6.95;;;6.25;;
65045;SDS011;54657;52.022;5.534;2023-06-22T08:56:47;6.43;;;5.82;;
65045;SDS011;54657;52.022;5.534;2023-06-22T08:59:13;7.57;;;5.78;;
65045;SDS011;54657;52.022;5.534;2023-06-22T09:01:41;8.20;;;6.05;;
65045;SDS011;54657;52.022;5.534;2023-06-22T09:04:10;6.10;;;5.60;;
65045;SDS011;54657;52.022;5.534;2023-06-22T09:06:39;6.57;;;5.50;;
65045;SDS011;54657;52.022;5.534;2023-06-22T09:09:09;5.80;;;5.30;;
65045;SDS011;54657;52.022;5.534;2023-06-22T09:11:38;7.45;;;5.78;;
65045;SDS011;54657;52.022;5.534;2023-06-22T09:14:04;5.78;;;5.25;;
65045;SDS011;54657;52.022;5.534;2023-06-22T09:16:30;5.80;;;5.25;;
65045;SDS011;54657;52.022;5.534;2023-06-22T09:18:58;6.38;;;5.78;;
65045;SDS011;54657;52.022;5.534;2023-06-22T09:21:23;7.82;;;5.18;;
65045;SDS011;54657;52.022;5.534;2023-06-22T09:23:49;6.40;;;5.47;;
65045;SDS011;54657;52.022;5.534;2023-06-22T09:26:18;6.18;;;5.57;;
65045;SDS011;54657;52.022;5.534;2023-06-22T09:28:43;6.20;;;5.60;;
65045;SDS011;54657;52.022;5.534;2023-06-22T09:31:09;6.00;;;5.50;;
65045;SDS011;54657;52.022;5.534;2023-06-22T09:33:35;8.18;;;5.82;;
65045;SDS011;54657;52.022;5.534;2023-06-22T09:36:01;6.70;;;5.38;;
65045;SDS011;54657;52.022;5.534;2023-06-22T09:38:27;5.38;;;4.88;;
65045;SDS011;54657;52.022;5.534;2023-06-22T09:40:52;6.13;;;5.50;;
65045;SDS011;54657;52.022;5.534;2023-06-22T09:43:18;6.57;;;5.57;;
65045;SDS011;54657;52.022;5.534;2023-06-22T09:45:43;5.53;;;5.00;;
65045;SDS011;54657;52.022;5.534;2023-06-22T09:48:09;8.20;;;5.18;;
65045;SDS011;54657;52.022;5.534;2023-06-22T09:50:35;5.13;;;4.65;;
65045;SDS011;54657;52.022;5.534;2023-06-22T09:53:02;5.40;;;4.85;;
65045;SDS011;54657;52.022;5.534;2023-06-22T09:55:28;5.35;;;4.60;;
65045;SDS011;54657;52.022;5.534;2023-06-22T09:57:53;8.02;;;5.30;;
65045;SDS011;54657;52.022;5.534;2023-06-22T10:00:20;6.00;;;5.50;;
65045;SDS011;54657;52.022;5.534;2023-06-22T10:02:46;5.80;;;5.22;;
65045;SDS011;54657;52.022;5.534;2023-06-22T10:05:12;5.45;;;4.95;;
65045;SDS011;54657;52.022;5.534;2023-06-22T10:07:38;7.20;;;5.38;;
65045;SDS011;54657;52.022;5.534;2023-06-22T10:10:07;5.45;;;4.95;;
65045;SDS011;54657;52.022;5.534;2023-06-22T10:12:33;5.82;;;5.32;;
65045;SDS011;54657;52.022;5.534;2023-06-22T10:14:59;5.78;;;4.93;;
65045;SDS011;54657;52.022;5.534;2023-06-22T10:17:25;5.55;;;5.05;;
65045;SDS011;54657;52.022;5.534;2023-06-22T10:19:50;5.68;;;5.18;;
65045;SDS011;54657;52.022;5.534;2023-06-22T10:22:16;5.18;;;4.75;;
65045;SDS011;54657;52.022;5.534;2023-06-22T10:24:41;5.55;;;4.88;;
65045;SDS011;54657;52.022;5.534;2023-06-22T10:27:10;5.68;;;4.88;;
65045;SDS011;54657;52.022;5.534;2023-06-22T10:29:36;6.32;;;4.50;;
65045;SDS011;54657;52.022;5.534;2023-06-22T10:32:02;5.47;;;4.97;;
65045;SDS011;54657;52.022;5.534;2023-06-22T10:34:28;5.97;;;4.88;;
65045;SDS011;54657;52.022;5.534;2023-06-22T10:36:54;6.05;;;5.05;;
65045;SDS011;54657;52.022;5.534;2023-06-22T10:39:19;6.85;;;5.32;;
65045;SDS011;54657;52.022;5.534;2023-06-22T10:41:45;6.32;;;5.30;;
65045;SDS011;54657;52.022;5.534;2023-06-22T10:44:10;8.07;;;4.57;;
65045;SDS011;54657;52.022;5.534;2023-06-22T10:46:37;8.13;;;4.60;;
65045;SDS011;54657;52.022;5.534;2023-06-22T10:49:02;5.43;;;4.50;;
65045;SDS011;54657;52.022;5.534;2023-06-22T10:51:28;6.93;;;4.50;;
65045;SDS011;54657;52.022;5.534;2023-06-22T10:53:54;5.03;;;4.45;;
65045;SDS011;54657;52.022;5.534;2023-06-22T10:56:19;6.55;;;4.40;;
65045;SDS011;54657;52.022;5.534;2023-06-22T10:58:45;4.72;;;4.22;;
65045;SDS011;54657;52.022;5.534;2023-06-22T11:01:11;7.28;;;4.40;;
65045;SDS011;54657;52.022;5.534;2023-06-22T11:03:36;5.22;;;4.30;;
65045;SDS011;54657;52.022;5.534;2023-06-22T11:06:02;4.68;;;4.20;;
65045;SDS011;54657;52.022;5.534;2023-06-22T11:08:28;8.02;;;4.65;;
65045;SDS011;54657;52.022;5.534;2023-06-22T11:10:53;5.70;;;5.10;;
65045;SDS011;54657;52.022;5.534;2023-06-22T11:13:19;6.55;;;4.35;;
65045;SDS011;54657;52.022;5.534;2023-06-22T11:15:44;4.72;;;4.32;;
65045;SDS011;54657;52.022;5.534;2023-06-22T11:18:10;5.05;;;4.60;;
65045;SDS011;54657;52.022;5.534;2023-06-22T11:20:36;6.45;;;5.43;;
65045;SDS011;54657;52.022;5.534;2023-06-22T11:23:03;5.00;;;4.47;;
65045;SDS011;54657;52.022;5.534;2023-06-22T11:25:30;7.13;;;5.30;;
65045;SDS011;54657;52.022;5.534;2023-06-22T11:27:56;5.15;;;4.65;;
65045;SDS011;54657;52.022;5.534;2023-06-22T11:30:21;7.97;;;5.25;;
65045;SDS011;54657;52.022;5.534;2023-06-22T11:32:48;5.88;;;5.28;;
65045;SDS011;54657;52.022;5.534;2023-06-22T11:35:13;7.50;;;5.07;;
65045;SDS011;54657;52.022;5.534;2023-06-22T11:37:39;6.30;;;5.40;;
65045;SDS011;54657;52.022;5.534;2023-06-22T11:40:05;6.18;;;5.57;;
65045;SDS011;54657;52.022;5.534;2023-06-22T11:42:34;6.78;;;5.85;;
65045;SDS011;54657;52.022;5.534;2023-06-22T11:44:59;7.65;;;6.18;;
65045;SDS011;54657;52.022;5.534;2023-06-22T11:47:25;11.32;;;6.22;;
65045;SDS011;54657;52.022;5.534;2023-06-22T11:49:51;9.68;;;7.07;;
65045;SDS011;54657;52.022;5.534;2023-06-22T11:52:16;8.68;;;7.00;;
65045;SDS011;54657;52.022;5.534;2023-06-22T11:54:42;11.27;;;7.57;;
65045;SDS011;54657;52.022;5.534;2023-06-22T11:57:08;9.40;;;7.57;;
65045;SDS011;54657;52.022;5.534;2023-06-22T11:59:34;8.00;;;7.30;;
65045;SDS011;54657;52.022;5.534;2023-06-22T12:01:59;10.63;;;7.18;;
65045;SDS011;54657;52.022;5.534;2023-06-22T12:04:25;8.70;;;7.90;;
65045;SDS011;54657;52.022;5.534;2023-06-22T12:06:51;8.38;;;7.55;;
65045;SDS011;54657;52.022;5.534;2023-06-22T12:09:16;9.13;;;7.32;;
65045;SDS011;54657;52.022;5.534;2023-06-22T12:11:42;9.48;;;7.50;;
65045;SDS011;54657;52.022;5.534;2023-06-22T12:14:07;7.50;;;6.75;;
65045;SDS011;54657;52.022;5.534;2023-06-22T12:16:33;8.25;;;7.45;;
65045;SDS011;54657;52.022;5.534;2023-06-22T12:19:01;7.50;;;6.80;;
65045;SDS011;54657;52.022;5.534;2023-06-22T12:21:26;8.85;;;7.63;;
65045;SDS011;54657;52.022;5.534;2023-06-22T12:23:58;7.93;;;7.10;;
65045;SDS011;54657;52.022;5.534;2023-06-22T12:26:29;8.48;;;7.63;;
65045;SDS011;54657;52.022;5.534;2023-06-22T12:28:57;9.00;;;7.22;;
65045;SDS011;54657;52.022;5.534;2023-06-22T12:31:43;6.93;;;6.32;;
65045;SDS011;54657;52.022;5.534;2023-06-22T12:44:38;8.73;;;7.78;;
65045;SDS011;54657;52.022;5.534;2023-06-22T12:50:58;8.48;;;7.55;;
65045;SDS011;54657;52.022;5.534;2023-06-22T12:56:49;8.43;;;7.60;;
65045;SDS011;54657;52.022;5.534;2023-06-22T12:59:15;8.95;;;8.05;;
65045;SDS011;54657;52.022;5.534;2023-06-22T13:01:42;10.38;;;9.35;;
65045;SDS011;54657;52.022;5.534;2023-06-22T13:04:09;10.32;;;9.32;;
65045;SDS011;54657;52.022;5.534;2023-06-22T13:06:36;13.18;;;11.15;;
65045;SDS011;54657;52.022;5.534;2023-06-22T13:09:01;12.25;;;11.05;;
65045;SDS011;54657;52.022;5.534;2023-06-22T13:11:30;14.68;;;10.98;;
65045;SDS011;54657;52.022;5.534;2023-06-22T13:13:55;14.45;;;10.80;;
65045;SDS011;54657;52.022;5.534;2023-06-22T13:16:21;12.80;;;10.05;;
65045;SDS011;54657;52.022;5.534;2023-06-22T13:18:47;10.25;;;9.25;;
65045;SDS011;54657;52.022;5.534;2023-06-22T13:21:12;11.63;;;10.50;;
65045;SDS011;54657;52.022;5.534;2023-06-22T13:23:39;16.60;;;10.38;;
65045;SDS011;54657;52.022;5.534;2023-06-22T13:26:04;11.30;;;10.20;;
65045;SDS011;54657;52.022;5.534;2023-06-22T13:28:30;10.52;;;9.50;;
65045;SDS011;54657;52.022;5.534;2023-06-22T13:30:56;13.40;;;10.68;;
65045;SDS011;54657;52.022;5.534;2023-06-22T13:33:21;12.15;;;10.88;;
65045;SDS011;54657;52.022;5.534;2023-06-22T13:35:47;11.63;;;10.50;;
65045;SDS011;54657;52.022;5.534;2023-06-22T13:38:13;13.15;;;11.32;;
65045;SDS011;54657;52.022;5.534;2023-06-22T13:40:38;14.75;;;11.02;;
65045;SDS011;54657;52.022;5.534;2023-06-22T13:43:04;11.95;;;10.75;;
65045;SDS011;54657;52.022;5.534;2023-06-22T13:45:30;12.85;;;11.68;;
65045;SDS011;54657;52.022;5.534;2023-06-22T13:47:56;12.45;;;11.32;;
65045;SDS011;54657;52.022;5.534;2023-06-22T13:50:22;12.93;;;11.48;;
65045;SDS011;54657;52.022;5.534;2023-06-22T13:52:49;12.82;;;11.52;;
65045;SDS011;54657;52.022;5.534;2023-06-22T13:55:14;13.07;;;11.77;;
65045;SDS011;54657;52.022;5.534;2023-06-22T13:57:40;15.07;;;12.48;;
65045;SDS011;54657;52.022;5.534;2023-06-22T14:00:07;15.32;;;12.82;;
65045;SDS011;54657;52.022;5.534;2023-06-22T14:02:33;13.60;;;12.40;;
65045;SDS011;54657;52.022;5.534;2023-06-22T14:04:59;15.43;;;13.00;;
65045;SDS011;54657;52.022;5.534;2023-06-22T14:07:25;14.25;;;12.75;;
65045;SDS011;54657;52.022;5.534;2023-06-22T14:09:50;14.60;;;12.23;;
65045;SDS011;54657;52.022;5.534;2023-06-22T14:12:16;14.32;;;12.98;;
65045;SDS011;54657;52.022;5.534;2023-06-22T14:14:44;13.52;;;12.32;;
65045;SDS011;54657;52.022;5.534;2023-06-22T14:17:10;15.30;;;13.85;;
65045;SDS011;54657;52.022;5.534;2023-06-22T14:19:36;14.35;;;12.85;;
65045;SDS011;54657;52.022;5.534;2023-06-22T14:22:02;14.88;;;13.40;;
65045;SDS011;54657;52.022;5.534;2023-06-22T14:24:28;15.73;;;14.02;;
65045;SDS011;54657;52.022;5.534;2023-06-22T14:26:54;14.98;;;13.57;;
65045;SDS011;54657;52.022;5.534;2023-06-22T14:29:20;13.93;;;12.68;;
65045;SDS011;54657;52.022;5.534;2023-06-22T14:31:47;16.58;;;13.98;;
65045;SDS011;54657;52.022;5.534;2023-06-22T14:34:13;14.93;;;13.57;;
65045;SDS011;54657;52.022;5.534;2023-06-22T14:36:39;15.73;;;14.32;;
65045;SDS011;54657;52.022;5.534;2023-06-22T14:39:05;16.52;;;14.82;;
65045;SDS011;54657;52.022;5.534;2023-06-22T14:41:31;15.48;;;14.07;;
65045;SDS011;54657;52.022;5.534;2023-06-22T14:43:57;15.55;;;14.00;;
65045;SDS011;54657;52.022;5.534;2023-06-22T14:46:23;16.00;;;14.30;;
65045;SDS011;54657;52.022;5.534;2023-06-22T14:48:49;17.90;;;16.00;;
65045;SDS011;54657;52.022;5.534;2023-06-22T14:51:14;17.30;;;15.73;;
65045;SDS011;54657;52.022;5.534;2023-06-22T14:53:41;18.25;;;16.35;;
65045;SDS011;54657;52.022;5.534;2023-06-22T14:56:08;14.80;;;13.40;;
65045;SDS011;54657;52.022;5.534;2023-06-22T14:58:34;16.05;;;14.55;;
65045;SDS011;54657;52.022;5.534;2023-06-22T15:01:01;17.63;;;15.82;;
65045;SDS011;54657;52.022;5.534;2023-06-22T15:03:27;17.52;;;15.73;;
65045;SDS011;54657;52.022;5.534;2023-06-22T15:05:55;18.60;;;16.70;;
65045;SDS011;54657;52.022;5.534;2023-06-22T15:08:21;17.42;;;15.73;;